Time;durP1;ratioP1;P1;durP2;ratioP2;P2;SDS_P1;SDS_P2;PMS_P1;PMS_P2;Temp;Humidity;BMP_temperature;BMP_pressure;BME280_temperature;BME280_humidity;BME280_pressure;Samples;Min_cycle;Max_cycle;Signal;HPM_P1;HPM_P2
2022/04/09 00:01:34;;;;;;;3.10;3.00;;;4.60;99.90;;;;;;5224771;28;20270;-50
2022/04/09 00:04:05;;;;;;;5.33;2.20;;;4.60;99.90;;;;;;5225761;28;20195;-50
2022/04/09 00:06:36;;;;;;;3.03;2.53;;;4.70;99.90;;;;;;5213989;28;20281;-50
2022/04/09 00:09:06;;;;;;;8.20;2.90;;;4.70;99.90;;;;;;5217843;28;20471;-48
2022/04/09 00:11:37;;;;;;;2.70;2.50;;;4.60;99.90;;;;;;5239926;28;20341;-49
2022/04/09 00:14:07;;;;;;;3.57;2.00;;;4.70;99.90;;;;;;5219496;28;20636;-47
2022/04/09 00:16:41;;;;;;;12.97;3.20;;;4.60;99.90;;;;;;5216013;28;20193;-51
2022/04/09 00:19:12;;;;;;;4.97;3.27;;;4.50;99.90;;;;;;5223156;28;20620;-49
2022/04/09 00:21:42;;;;;;;5.20;2.60;;;4.60;99.90;;;;;;5224270;28;20523;-48
2022/04/09 00:24:13;;;;;;;2.53;2.47;;;4.50;99.90;;;;;;5219501;28;20210;-48
2022/04/09 00:26:43;;;;;;;6.27;3.30;;;4.60;99.90;;;;;;5226684;28;20285;-51
2022/04/09 00:29:14;;;;;;;4.67;3.13;;;4.50;99.90;;;;;;5214433;28;20183;-50
2022/04/09 00:31:44;;;;;;;2.80;2.60;;;4.40;99.90;;;;;;5225656;28;20706;-49
2022/04/09 00:34:15;;;;;;;2.83;2.63;;;4.40;99.90;;;;;;5224490;28;20186;-48
2022/04/09 00:36:45;;;;;;;3.00;2.80;;;4.30;99.90;;;;;;5214402;28;20202;-48
2022/04/09 00:39:16;;;;;;;4.00;2.83;;;4.30;99.90;;;;;;5223339;28;20187;-49
2022/04/09 00:41:47;;;;;;;2.93;2.63;;;4.30;99.90;;;;;;5222197;28;20253;-50
2022/04/09 00:44:18;;;;;;;4.50;2.33;;;4.20;99.90;;;;;;5224680;28;20245;-48
2022/04/09 00:46:49;;;;;;;2.67;2.47;;;4.20;99.90;;;;;;5221288;28;20466;-50
2022/04/09 00:49:20;;;;;;;3.53;2.70;;;4.20;99.90;;;;;;5226051;28;20488;-50
2022/04/09 00:51:53;;;;;;;3.33;2.10;;;4.20;99.90;;;;;;5213643;28;20732;-49
2022/04/09 00:54:25;;;;;;;3.67;2.50;;;4.20;99.90;;;;;;5224969;28;20807;-49
2022/04/09 00:57:02;;;;;;;6.30;2.60;;;4.20;99.90;;;;;;5229349;28;20528;-50
2022/04/09 00:59:35;;;;;;;2.53;2.20;;;4.30;99.90;;;;;;5221599;28;20957;-50
2022/04/09 01:02:06;;;;;;;4.00;2.40;;;4.30;99.90;;;;;;5226428;28;20777;-50
2022/04/09 01:04:41;;;;;;;9.93;3.67;;;4.30;99.90;;;;;;5224161;28;20445;-49
2022/04/09 01:07:14;;;;;;;3.83;2.87;;;4.30;99.90;;;;;;5219597;28;20707;-50
2022/04/09 01:09:45;;;;;;;6.80;3.13;;;4.20;99.90;;;;;;5242203;28;20491;-51
2022/04/09 01:12:16;;;;;;;4.03;2.60;;;4.20;99.90;;;;;;5226632;28;20555;-49
2022/04/09 01:14:47;;;;;;;2.53;2.33;;;4.20;99.90;;;;;;5226469;28;20994;-49
2022/04/09 01:17:18;;;;;;;9.27;2.90;;;4.20;99.90;;;;;;5222547;28;20282;-49
2022/04/09 01:19:48;;;;;;;6.07;2.80;;;4.10;99.90;;;;;;5228572;28;20493;-49
2022/04/09 01:22:19;;;;;;;4.13;2.37;;;4.10;99.90;;;;;;5216516;28;20433;-50
2022/04/09 01:24:49;;;;;;;3.60;2.30;;;4.10;99.90;;;;;;5229161;28;20553;-49
2022/04/09 01:27:20;;;;;;;3.33;2.10;;;4.10;99.90;;;;;;5219769;28;20286;-49
2022/04/09 01:29:50;;;;;;;6.07;2.23;;;4.00;99.90;;;;;;5224159;28;20194;-49
2022/04/09 01:32:21;;;;;;;2.80;2.13;;;4.00;99.90;;;;;;5223912;28;20179;-52
2022/04/09 01:34:54;;;;;;;9.40;2.53;;;4.00;99.90;;;;;;5228492;28;20179;-48
2022/04/09 01:37:24;;;;;;;5.40;2.60;;;4.00;99.90;;;;;;5219865;28;20659;-49
2022/04/09 01:39:55;;;;;;;2.60;2.10;;;4.00;99.90;;;;;;5223563;28;20586;-49
2022/04/09 01:42:28;;;;;;;8.93;1.80;;;4.00;99.90;;;;;;5224725;28;20218;-48
2022/04/09 01:44:59;;;;;;;4.53;1.50;;;4.00;99.90;;;;;;5229441;28;20216;-47
2022/04/09 01:47:29;;;;;;;11.07;2.10;;;4.00;99.90;;;;;;5237177;28;20466;-48
2022/04/09 01:50:00;;;;;;;7.83;2.43;;;4.00;99.90;;;;;;5220054;28;20215;-48
2022/04/09 01:52:31;;;;;;;4.10;2.00;;;3.90;99.90;;;;;;5228498;28;20270;-49
2022/04/09 01:55:02;;;;;;;1.40;1.30;;;3.90;99.90;;;;;;5223163;28;20518;-50
2022/04/09 01:57:34;;;;;;;2.23;2.03;;;3.90;99.90;;;;;;5221251;28;20177;-49
2022/04/09 02:00:08;;;;;;;3.53;2.03;;;3.90;99.90;;;;;;5225561;28;21099;-50
2022/04/09 02:02:39;;;;;;;3.80;1.50;;;3.90;99.90;;;;;;5228836;28;20633;-50
2022/04/09 02:05:14;;;;;;;5.20;1.40;;;3.90;99.90;;;;;;5215253;28;20446;-50
2022/04/09 02:07:47;;;;;;;3.03;2.10;;;3.90;99.90;;;;;;5226098;28;20469;-49
2022/04/09 02:10:18;;;;;;;8.77;2.00;;;4.00;99.90;;;;;;5224245;28;20975;-49
2022/04/09 02:12:49;;;;;;;5.63;1.73;;;3.90;99.90;;;;;;5222519;28;20430;-49
2022/04/09 02:15:20;;;;;;;2.20;2.10;;;3.90;99.90;;;;;;5220331;28;20421;-50
2022/04/09 02:17:50;;;;;;;9.87;1.93;;;3.90;99.90;;;;;;5222504;28;20187;-49
2022/04/09 02:20:21;;;;;;;7.83;2.50;;;3.90;99.90;;;;;;5226518;28;20477;-49
2022/04/09 02:22:51;;;;;;;6.93;1.60;;;3.90;99.90;;;;;;5217247;28;20179;-48
2022/04/09 02:25:22;;;;;;;3.43;1.87;;;3.80;99.90;;;;;;5229901;28;20599;-48
2022/04/09 02:27:52;;;;;;;3.70;1.73;;;3.80;99.90;;;;;;5237462;28;20202;-49
2022/04/09 02:30:23;;;;;;;4.93;2.00;;;3.80;99.90;;;;;;5216843;28;20531;-49
2022/04/09 02:32:53;;;;;;;4.17;2.23;;;3.80;99.90;;;;;;5204146;28;20179;-48
2022/04/09 02:35:26;;;;;;;4.03;1.80;;;3.90;99.90;;;;;;5221134;28;20175;-48
2022/04/09 02:37:57;;;;;;;9.97;2.07;;;3.80;99.90;;;;;;5223720;28;20589;-52
2022/04/09 02:40:28;;;;;;;3.20;2.00;;;3.70;99.90;;;;;;5227564;28;20573;-49
2022/04/09 02:42:59;;;;;;;5.60;2.57;;;3.70;99.90;;;;;;5211986;28;20257;-50
2022/04/09 02:45:29;;;;;;;11.63;3.27;;;3.70;99.90;;;;;;5225580;28;20868;-49
2022/04/09 02:48:00;;;;;;;3.33;2.40;;;3.70;99.90;;;;;;5231362;28;20211;-49
2022/04/09 02:50:30;;;;;;;3.90;1.83;;;3.70;99.90;;;;;;5235876;28;20685;-49
2022/04/09 02:53:01;;;;;;;4.33;2.70;;;3.60;99.90;;;;;;5230354;28;20175;-49
2022/04/09 02:55:31;;;;;;;1.83;1.63;;;3.60;99.90;;;;;;5226321;28;20193;-49
2022/04/09 02:58:02;;;;;;;2.30;1.70;;;3.50;99.90;;;;;;5215864;28;20179;-49
2022/04/09 03:00:33;;;;;;;13.33;2.40;;;3.50;99.90;;;;;;5223249;28;20241;-52
2022/04/09 03:03:03;;;;;;;3.23;2.10;;;3.50;99.90;;;;;;5226943;28;20548;-50
2022/04/09 03:05:34;;;;;;;7.53;1.80;;;3.40;99.90;;;;;;5220533;28;20194;-50
2022/04/09 03:08:05;;;;;;;4.43;2.00;;;3.50;99.90;;;;;;5209969;28;20234;-49
2022/04/09 03:10:36;;;;;;;7.80;1.93;;;3.40;99.90;;;;;;5217557;28;20231;-49
2022/04/09 03:13:06;;;;;;;7.70;2.70;;;3.40;99.90;;;;;;5222139;28;20461;-49
2022/04/09 03:15:37;;;;;;;9.33;2.70;;;3.30;99.90;;;;;;5227024;28;20606;-49
2022/04/09 03:18:10;;;;;;;4.00;2.17;;;3.30;99.90;;;;;;5218083;28;20490;-49
2022/04/09 03:20:40;;;;;;;6.80;2.03;;;3.20;99.90;;;;;;5221624;28;20219;-50
2022/04/09 03:23:11;;;;;;;2.93;1.97;;;3.20;99.90;;;;;;5219426;28;20987;-49
2022/04/09 03:25:42;;;;;;;5.23;2.57;;;3.20;99.90;;;;;;5220095;28;20258;-51
2022/04/09 03:28:12;;;;;;;4.13;1.90;;;3.10;99.90;;;;;;5223247;28;20265;-50
2022/04/09 03:30:44;;;;;;;5.93;2.40;;;3.20;99.90;;;;;;5224445;28;20198;-50
2022/04/09 03:33:14;;;;;;;4.67;2.73;;;3.10;99.90;;;;;;5223447;28;20265;-50
2022/04/09 03:35:46;;;;;;;14.63;2.50;;;3.10;99.90;;;;;;5207605;28;20517;-49
2022/04/09 03:38:16;;;;;;;3.67;2.40;;;3.00;99.90;;;;;;5226111;28;20175;-48
2022/04/09 03:40:47;;;;;;;5.80;2.70;;;3.00;99.90;;;;;;5215362;28;20473;-50
2022/04/09 03:43:17;;;;;;;7.20;2.73;;;3.00;99.90;;;;;;5210013;28;20182;-48
2022/04/09 03:45:48;;;;;;;2.33;2.20;;;3.00;99.90;;;;;;5239387;28;20183;-48
2022/04/09 03:48:18;;;;;;;4.57;2.17;;;2.90;99.90;;;;;;5227764;28;20206;-47
2022/04/09 03:50:49;;;;;;;2.10;1.93;;;2.90;99.90;;;;;;5213704;28;20333;-48
2022/04/09 03:53:20;;;;;;;4.67;2.30;;;2.90;99.90;;;;;;5224527;28;20489;-48
2022/04/09 03:55:51;;;;;;;7.70;2.50;;;2.90;99.90;;;;;;5224417;28;20187;-48
2022/04/09 03:58:22;;;;;;;5.83;2.27;;;2.90;99.90;;;;;;5222835;28;20215;-50
2022/04/09 04:00:53;;;;;;;7.77;2.80;;;2.80;99.90;;;;;;5217596;28;20795;-49
2022/04/09 04:03:25;;;;;;;9.83;3.50;;;2.80;99.90;;;;;;5224943;28;20516;-47
2022/04/09 04:05:56;;;;;;;5.23;2.40;;;2.80;99.90;;;;;;5228236;28;20225;-48
2022/04/09 04:08:26;;;;;;;9.43;2.33;;;2.80;99.90;;;;;;5225357;28;21079;-50
2022/04/09 04:10:57;;;;;;;8.63;3.10;;;2.80;99.90;;;;;;5210774;28;20231;-50
2022/04/09 04:13:27;;;;;;;8.97;2.30;;;2.80;99.90;;;;;;5223751;28;20247;-48
2022/04/09 04:15:59;;;;;;;4.77;2.23;;;2.80;99.90;;;;;;5220942;28;20186;-50
2022/04/09 04:18:29;;;;;;;4.33;2.37;;;2.70;99.90;;;;;;5224100;28;20265;-49
2022/04/09 04:21:00;;;;;;;7.40;2.70;;;2.80;99.90;;;;;;5211790;28;20567;-50
2022/04/09 04:23:30;;;;;;;9.97;2.67;;;2.70;99.90;;;;;;5225690;28;20647;-49
2022/04/09 04:26:02;;;;;;;10.20;2.80;;;2.70;99.90;;;;;;5219256;28;20187;-49
2022/04/09 04:28:33;;;;;;;7.00;2.60;;;2.70;99.90;;;;;;5213980;28;20214;-49
2022/04/09 04:31:04;;;;;;;5.87;2.77;;;2.80;99.90;;;;;;5222908;28;20519;-50
2022/04/09 04:33:36;;;;;;;5.63;2.20;;;2.90;99.90;;;;;;5226953;28;20686;-48
2022/04/09 04:36:06;;;;;;;3.67;2.20;;;3.10;99.90;;;;;;5227312;28;20424;-50
2022/04/09 04:38:37;;;;;;;7.83;2.70;;;3.10;99.90;;;;;;5228511;28;20437;-49
2022/04/09 04:41:07;;;;;;;8.67;2.10;;;3.10;99.90;;;;;;5228209;28;20690;-49
2022/04/09 04:43:38;;;;;;;5.20;2.87;;;3.00;99.90;;;;;;5221304;28;20195;-49
2022/04/09 04:46:08;;;;;;;6.07;2.57;;;3.00;99.90;;;;;;5220196;28;20180;-48
2022/04/09 04:48:39;;;;;;;6.43;2.27;;;3.10;99.90;;;;;;5216653;28;20555;-49
2022/04/09 04:51:09;;;;;;;14.43;3.50;;;3.00;99.90;;;;;;5221587;28;20202;-51
2022/04/09 04:53:40;;;;;;;16.37;2.83;;;3.00;99.90;;;;;;5228896;28;20179;-48
2022/04/09 04:56:10;;;;;;;5.60;2.93;;;3.00;99.90;;;;;;5217720;28;20287;-49
2022/04/09 04:58:41;;;;;;;8.20;2.87;;;3.00;99.90;;;;;;5224243;28;20654;-49
2022/04/09 05:01:11;;;;;;;7.53;2.47;;;3.10;99.90;;;;;;5221589;28;20191;-48
2022/04/09 05:03:42;;;;;;;10.30;2.70;;;3.20;99.90;;;;;;5209531;28;20551;-50
2022/04/09 05:06:12;;;;;;;4.77;2.30;;;3.40;99.90;;;;;;5226311;28;20183;-48
2022/04/09 05:08:43;;;;;;;6.33;3.03;;;3.50;99.90;;;;;;5222090;28;20179;-49
2022/04/09 05:11:13;;;;;;;9.27;2.80;;;3.70;99.90;;;;;;5221190;28;20202;-48
2022/04/09 05:13:44;;;;;;;10.67;3.43;;;3.90;99.90;;;;;;5227940;28;20186;-49
2022/04/09 05:16:14;;;;;;;5.63;2.57;;;4.10;99.90;;;;;;5224343;28;20175;-50
2022/04/09 05:18:45;;;;;;;7.30;3.07;;;4.00;99.90;;;;;;5227187;28;20175;-50
2022/04/09 05:21:16;;;;;;;6.53;3.63;;;4.10;99.90;;;;;;5226009;28;20675;-49
2022/04/09 05:23:46;;;;;;;9.37;3.17;;;4.40;99.90;;;;;;5227694;28;20214;-48
2022/04/09 05:26:17;;;;;;;7.17;3.57;;;5.00;99.90;;;;;;5223400;28;20190;-49
2022/04/09 05:28:53;;;;;;;4.63;2.10;;;5.50;99.90;;;;;;5226518;28;20187;-49
2022/04/09 05:31:27;;;;;;;11.33;2.10;;;5.80;99.90;;;;;;5227895;28;20212;-49
2022/04/09 05:33:58;;;;;;;4.57;2.13;;;6.40;99.90;;;;;;5226656;28;20442;-49
2022/04/09 05:36:28;;;;;;;8.30;2.93;;;6.70;99.90;;;;;;5218880;28;20485;-49
2022/04/09 05:38:59;;;;;;;4.70;2.37;;;6.70;99.90;;;;;;5227371;28;20172;-49
2022/04/09 05:41:29;;;;;;;18.87;2.93;;;6.50;99.90;;;;;;5226154;28;20280;-48
2022/04/09 05:44:00;;;;;;;11.33;2.50;;;6.90;99.90;;;;;;5225408;28;20230;-50
2022/04/09 05:46:30;;;;;;;13.23;2.63;;;7.30;99.90;;;;;;5224276;28;20667;-50
2022/04/09 05:49:02;;;;;;;6.00;2.20;;;7.70;99.90;;;;;;5226319;28;20187;-48
2022/04/09 05:51:33;;;;;;;11.00;2.50;;;7.50;99.90;;;;;;5224250;28;20194;-49
2022/04/09 05:54:04;;;;;;;3.83;2.20;;;7.30;99.90;;;;;;5217963;28;20440;-50
2022/04/09 05:56:34;;;;;;;4.77;2.37;;;7.70;99.90;;;;;;5228761;28;20194;-50
2022/04/09 05:59:05;;;;;;;7.17;2.93;;;8.10;99.90;;;;;;5226822;28;20727;-50
2022/04/09 06:01:36;;;;;;;3.33;1.73;;;8.50;99.90;;;;;;5225757;28;20209;-48
2022/04/09 06:04:07;;;;;;;5.43;2.40;;;9.30;99.90;;;;;;5232813;28;20266;-49
2022/04/09 06:06:38;;;;;;;5.10;2.70;;;9.90;97.30;;;;;;5222321;28;20203;-49
2022/04/09 06:09:09;;;;;;;5.80;2.07;;;9.30;96.50;;;;;;5220955;28;20439;-49
2022/04/09 06:11:40;;;;;;;3.40;1.70;;;8.50;99.90;;;;;;5216929;28;20199;-49
2022/04/09 06:14:10;;;;;;;5.93;1.73;;;8.00;99.90;;;;;;5218640;28;20182;-48
2022/04/09 06:16:41;;;;;;;13.20;2.70;;;7.30;99.90;;;;;;5227878;28;20441;-50
2022/04/09 06:19:12;;;;;;;5.20;1.80;;;7.40;99.90;;;;;;5224975;28;20180;-49
2022/04/09 06:21:42;;;;;;;11.93;1.70;;;7.50;99.90;;;;;;5227282;28;20215;-50
2022/04/09 06:24:13;;;;;;;7.30;2.20;;;8.20;99.90;;;;;;5222121;28;20257;-49
2022/04/09 06:26:43;;;;;;;8.07;2.40;;;8.00;99.90;;;;;;5224464;28;20245;-50
2022/04/09 06:29:14;;;;;;;6.97;2.23;;;9.20;99.90;;;;;;5225717;28;20174;-49
2022/04/09 06:31:47;;;;;;;6.17;2.00;;;9.70;97.30;;;;;;5222565;28;20203;-51
2022/04/09 06:34:18;;;;;;;9.23;2.53;;;10.50;90.30;;;;;;5223574;28;20238;-49
2022/04/09 06:36:49;;;;;;;5.70;2.93;;;11.90;77.10;;;;;;5227573;28;20913;-49
2022/04/09 06:39:20;;;;;;;3.87;2.17;;;13.80;59.00;;;;;;5227165;28;20259;-48
2022/04/09 06:41:51;;;;;;;2.97;1.87;;;13.40;55.80;;;;;;5224820;28;20203;-48
2022/04/09 06:44:24;;;;;;;3.57;1.83;;;13.80;55.40;;;;;;5222656;28;20514;-49
2022/04/09 06:46:54;;;;;;;3.30;1.57;;;14.70;52.90;;;;;;5218594;28;20203;-50
2022/04/09 06:49:25;;;;;;;2.43;1.70;;;15.30;49.00;;;;;;5224327;28;20456;-50
2022/04/09 06:51:55;;;;;;;1.27;1.20;;;16.30;46.50;;;;;;5225549;28;20187;-49
2022/04/09 06:54:26;;;;;;;7.53;2.10;;;17.00;43.20;;;;;;5226254;28;20202;-50
2022/04/09 06:56:56;;;;;;;7.70;2.83;;;16.70;43.10;;;;;;5221094;28;20655;-48
2022/04/09 06:59:27;;;;;;;6.47;2.40;;;15.90;43.50;;;;;;5225636;28;20190;-48
2022/04/09 07:01:57;;;;;;;5.87;1.80;;;15.60;43.10;;;;;;5223509;28;20682;-47
2022/04/09 07:04:28;;;;;;;8.87;2.00;;;14.70;44.30;;;;;;5215675;28;20191;-49
2022/04/09 07:06:58;;;;;;;6.70;1.93;;;13.90;45.50;;;;;;5225081;28;20660;-50
2022/04/09 07:09:29;;;;;;;3.73;2.60;;;12.40;48.50;;;;;;5222048;28;20174;-50
2022/04/09 07:11:59;;;;;;;10.33;3.10;;;13.00;49.20;;;;;;5224899;28;20233;-51
2022/04/09 07:14:30;;;;;;;5.57;2.87;;;14.10;48.50;;;;;;5236252;28;20269;-51
2022/04/09 07:17:03;;;;;;;10.67;3.17;;;14.00;46.30;;;;;;5217045;28;20171;-48
2022/04/09 07:19:33;;;;;;;4.67;2.00;;;13.80;46.60;;;;;;5223580;28;20179;-49
2022/04/09 07:22:05;;;;;;;12.10;2.23;;;13.60;47.30;;;;;;5217784;28;20453;-50
2022/04/09 07:24:35;;;;;;;3.93;2.00;;;13.60;48.00;;;;;;5206630;28;20183;-50
2022/04/09 07:27:06;;;;;;;11.93;2.47;;;12.40;49.00;;;;;;5233216;28;21014;-48
2022/04/09 07:29:36;;;;;;;10.30;2.70;;;11.00;52.40;;;;;;5228987;28;20208;-50
2022/04/09 07:32:07;;;;;;;5.90;2.30;;;10.10;55.80;;;;;;5221839;28;20187;-50
2022/04/09 07:34:38;;;;;;;13.40;2.43;;;9.20;61.90;;;;;;5220328;28;20241;-50
2022/04/09 07:37:09;;;;;;;10.87;2.30;;;8.70;71.80;;;;;;5221514;28;20452;-50
2022/04/09 07:39:39;;;;;;;4.27;2.20;;;8.50;82.80;;;;;;5217626;28;20190;-48
2022/04/09 07:42:10;;;;;;;5.10;2.67;;;9.40;81.40;;;;;;5221832;28;20190;-50
2022/04/09 07:44:40;;;;;;;12.13;2.47;;;10.70;70.40;;;;;;5222213;28;20187;-50
2022/04/09 07:47:11;;;;;;;3.37;1.90;;;11.80;58.80;;;;;;5225083;28;20290;-51
2022/04/09 07:49:44;;;;;;;2.53;1.67;;;11.50;57.20;;;;;;5220982;28;20678;-50
2022/04/09 07:52:15;;;;;;;7.83;2.47;;;10.70;59.70;;;;;;5223188;28;20631;-51
2022/04/09 07:54:45;;;;;;;2.20;1.90;;;9.70;64.20;;;;;;5224376;28;20413;-49
2022/04/09 07:57:16;;;;;;;8.10;2.33;;;9.40;72.00;;;;;;5217008;28;20579;-49
2022/04/09 07:59:46;;;;;;;6.33;2.13;;;9.80;70.80;;;;;;5229757;28;20190;-49
2022/04/09 08:02:17;;;;;;;5.50;2.60;;;9.80;71.60;;;;;;5225142;28;20194;-50
2022/04/09 08:04:48;;;;;;;6.97;2.50;;;9.70;70.90;;;;;;5222772;28;20632;-51
2022/04/09 08:07:18;;;;;;;6.53;1.90;;;9.30;73.20;;;;;;5224227;28;20214;-50
2022/04/09 08:09:49;;;;;;;6.37;2.80;;;9.80;71.30;;;;;;5224145;28;20643;-50
2022/04/09 08:12:19;;;;;;;16.43;2.37;;;11.10;60.80;;;;;;5232223;28;20191;-51
2022/04/09 08:14:50;;;;;;;5.40;2.67;;;11.00;57.30;;;;;;5219090;28;20180;-50
2022/04/09 08:17:20;;;;;;;9.40;2.10;;;10.60;59.40;;;;;;5220210;28;20179;-48
2022/04/09 08:19:51;;;;;;;10.07;2.87;;;10.40;59.60;;;;;;5224091;28;20218;-51
2022/04/09 08:22:22;;;;;;;3.60;1.70;;;10.30;60.80;;;;;;5221068;28;20187;-51
2022/04/09 08:24:53;;;;;;;11.03;2.43;;;10.80;58.30;;;;;;5217115;28;20632;-50
2022/04/09 08:27:23;;;;;;;8.90;2.17;;;10.40;56.90;;;;;;5224499;28;20472;-52
2022/04/09 08:29:54;;;;;;;2.17;2.00;;;9.90;58.70;;;;;;5216199;28;20290;-51
2022/04/09 08:32:25;;;;;;;3.53;1.70;;;10.10;57.70;;;;;;5220966;28;20631;-49
2022/04/09 08:34:56;;;;;;;4.33;1.73;;;10.40;56.60;;;;;;5223398;28;20183;-50
2022/04/09 08:37:26;;;;;;;3.43;1.77;;;9.90;57.50;;;;;;5225509;28;20443;-50
2022/04/09 08:39:57;;;;;;;6.67;1.77;;;9.70;58.30;;;;;;5219594;28;20207;-51
2022/04/09 08:42:28;;;;;;;13.50;2.57;;;9.60;59.60;;;;;;5224585;28;20202;-51
2022/04/09 08:44:59;;;;;;;9.87;2.47;;;9.70;58.90;;;;;;5224219;28;20287;-50
2022/04/09 08:47:33;;;;;;;4.87;1.60;;;10.00;57.50;;;;;;5223184;28;20548;-51
2022/04/09 08:50:04;;;;;;;7.70;2.10;;;9.80;57.20;;;;;;5223098;28;20475;-49
2022/04/09 08:52:39;;;;;;;9.50;1.80;;;9.70;58.60;;;;;;5215394;28;20442;-50
2022/04/09 08:55:13;;;;;;;2.40;1.97;;;10.10;55.80;;;;;;5216497;28;20444;-51
2022/04/09 08:57:44;;;;;;;3.57;2.17;;;9.70;56.50;;;;;;5219401;28;20937;-50
2022/04/09 09:00:17;;;;;;;4.13;1.90;;;9.40;57.80;;;;;;5211307;28;20503;-50
2022/04/09 09:02:53;;;;;;;4.47;1.83;;;9.50;58.30;;;;;;5218232;28;20192;-48
2022/04/09 09:05:45;;;;;;;8.47;2.13;;;9.50;57.00;;;;;;5216539;28;20433;-52
2022/04/09 09:08:16;;;;;;;3.13;2.20;;;9.70;57.10;;;;;;5218933;28;20469;-47
2022/04/09 09:10:56;;;;;;;9.00;2.33;;;9.40;55.70;;;;;;5216696;28;20457;-50
2022/04/09 09:13:27;;;;;;;6.90;1.80;;;9.20;57.30;;;;;;5219800;28;20198;-51
2022/04/09 09:15:57;;;;;;;7.00;2.17;;;9.30;57.70;;;;;;5217152;28;20434;-49
2022/04/09 09:18:28;;;;;;;4.47;2.07;;;9.40;57.40;;;;;;5221593;28;20195;-53
2022/04/09 09:21:01;;;;;;;3.27;1.90;;;9.60;55.20;;;;;;5243825;22;20230;-51
2022/04/09 09:23:33;;;;;;;4.43;2.13;;;9.60;54.10;;;;;;5217176;28;20437;-53
2022/04/09 09:26:04;;;;;;;4.10;1.80;;;9.40;53.80;;;;;;5211837;28;20440;-50
2022/04/09 09:28:35;;;;;;;4.97;2.10;;;9.40;54.10;;;;;;5214202;28;20476;-50
2022/04/09 09:31:06;;;;;;;4.57;1.60;;;9.30;51.70;;;;;;5214725;28;20533;-51
2022/04/09 09:33:36;;;;;;;4.70;2.00;;;9.40;52.20;;;;;;5206272;28;20245;-51
2022/04/09 09:36:07;;;;;;;5.13;1.60;;;9.60;52.70;;;;;;5205071;28;20219;-51
2022/04/09 09:38:40;;;;;;;7.33;2.47;;;9.70;52.50;;;;;;5204984;28;20176;-50
2022/04/09 09:41:26;;;;;;;4.10;1.63;;;10.00;51.70;;;;;;5206535;28;20192;-50
2022/04/09 09:44:03;;;;;;;4.47;2.37;;;10.40;49.30;;;;;;5204341;28;20468;-51
2022/04/09 09:46:35;;;;;;;5.00;1.97;;;10.40;48.90;;;;;;5203859;28;20465;-50
2022/04/09 09:49:05;;;;;;;4.10;1.50;;;10.80;49.40;;;;;;5205188;28;20435;-50
2022/04/09 09:51:36;;;;;;;2.10;1.90;;;10.80;48.00;;;;;;5205383;28;20877;-53
2022/04/09 09:54:10;;;;;;;4.40;1.53;;;10.90;48.20;;;;;;5205177;28;20659;-53
2022/04/09 09:56:43;;;;;;;4.90;1.80;;;11.20;47.50;;;;;;5205561;28;20194;-51
2022/04/09 09:59:14;;;;;;;4.07;1.70;;;11.20;46.90;;;;;;5206880;28;20970;-52
2022/04/09 10:01:48;;;;;;;1.70;1.40;;;11.40;46.70;;;;;;5207583;28;20453;-50
2022/04/09 10:04:19;;;;;;;7.60;1.57;;;10.70;45.90;;;;;;5206344;28;20490;-52
2022/04/09 10:06:50;;;;;;;10.80;1.90;;;10.20;46.70;;;;;;5207046;28;20988;-52
2022/04/09 10:09:21;;;;;;;3.57;1.53;;;10.10;48.20;;;;;;5205889;28;20172;-50
2022/04/09 10:11:54;;;;;;;7.23;2.23;;;10.20;47.80;;;;;;5202080;28;20481;-52
2022/04/09 10:14:28;;;;;;;4.83;1.80;;;10.60;47.10;;;;;;5207959;28;20452;-51
2022/04/09 10:17:04;;;;;;;1.60;1.50;;;10.90;45.40;;;;;;5201524;28;20449;-50
2022/04/09 10:19:40;;;;;;;5.67;1.90;;;10.80;45.60;;;;;;5205072;28;21008;-51
2022/04/09 10:22:14;;;;;;;3.07;1.57;;;10.90;45.80;;;;;;5218810;28;20481;-51
2022/04/09 10:24:45;;;;;;;1.80;1.20;;;10.80;45.30;;;;;;5218749;28;20841;-53
2022/04/09 10:27:40;;;;;;;1.50;1.37;;;11.10;45.20;;;;;;5191736;28;20595;-53
2022/04/09 10:30:19;;;;;;;6.57;1.90;;;11.10;45.30;;;;;;5201569;28;20448;-51
2022/04/09 10:32:57;;;;;;;9.20;2.40;;;10.90;44.80;;;;;;5204887;28;20449;-53
2022/04/09 10:35:30;;;;;;;6.30;1.90;;;10.60;45.30;;;;;;5206355;28;20458;-51
2022/04/09 10:38:10;;;;;;;3.73;2.27;;;10.00;45.70;;;;;;5199776;28;20440;-52
2022/04/09 10:40:43;;;;;;;3.67;2.03;;;10.00;46.90;;;;;;5212619;28;20490;-51
2022/04/09 10:43:25;;;;;;;6.00;3.40;;;10.10;47.60;;;;;;5199764;28;20802;-53
2022/04/09 10:46:02;;;;;;;5.90;2.20;;;10.10;47.20;;;;;;5195361;28;20929;-51
2022/04/09 10:48:42;;;;;;;9.10;3.00;;;10.00;47.80;;;;;;5204767;28;20541;-54
2022/04/09 10:51:18;;;;;;;4.60;2.60;;;10.00;48.30;;;;;;5198073;28;20510;-51
2022/04/09 10:53:51;;;;;;;8.70;3.77;;;10.20;48.20;;;;;;5201908;28;20441;-51
2022/04/09 10:56:32;;;;;;;32.83;13.80;;;10.70;47.90;;;;;;5199547;28;20433;-51
2022/04/09 10:59:06;;;;;;;19.90;5.80;;;11.00;47.40;;;;;;5206057;28;20434;-52
2022/04/09 11:01:46;;;;;;;5.50;3.93;;;11.30;46.50;;;;;;5204916;28;20934;-52
2022/04/09 11:04:29;;;;;;;2.43;2.23;;;11.00;45.50;;;;;;5205166;28;20902;-52
2022/04/09 11:07:05;;;;;;;7.17;2.73;;;10.50;46.30;;;;;;5216906;28;20470;-52
2022/04/09 11:10:01;;;;;;;4.77;2.07;;;10.30;46.60;;;;;;5199420;28;20549;-51
2022/04/09 11:12:38;;;;;;;3.53;1.67;;;10.30;47.70;;;;;;5202300;28;20426;-52
2022/04/09 11:15:11;;;;;;;2.23;1.20;;;10.20;47.00;;;;;;5198503;28;20435;-52
2022/04/09 11:17:43;;;;;;;14.73;1.47;;;10.40;47.20;;;;;;5184611;28;20434;-55
2022/04/09 11:20:24;;;;;;;2.00;0.97;;;10.60;46.80;;;;;;5204613;28;20449;-51
2022/04/09 11:22:58;;;;;;;3.77;1.37;;;10.40;46.30;;;;;;5200709;28;20560;-54
2022/04/09 11:25:30;;;;;;;1.83;1.30;;;10.50;46.60;;;;;;5202827;28;20510;-53
2022/04/09 11:28:17;;;;;;;10.07;3.47;;;11.10;46.60;;;;;;5184882;28;20489;-51
2022/04/09 11:30:58;;;;;;;9.00;5.53;;;11.00;45.70;;;;;;5197976;28;20549;-49
2022/04/09 11:33:29;;;;;;;4.53;1.20;;;11.00;45.60;;;;;;5196804;28;20452;-51
2022/04/09 11:36:02;;;;;;;1.27;1.10;;;10.80;46.10;;;;;;5199843;28;20815;-51
2022/04/09 11:38:33;;;;;;;2.10;0.87;;;10.70;45.70;;;;;;5200093;28;20452;-50
2022/04/09 11:41:18;;;;;;;2.10;1.53;;;10.80;45.80;;;;;;5206402;28;20930;-51
2022/04/09 11:43:50;;;;;;;1.10;0.80;;;10.90;45.90;;;;;;5202410;28;20183;-54
2022/04/09 11:46:21;;;;;;;6.47;3.67;;;11.30;45.00;;;;;;5204026;28;20945;-52
2022/04/09 11:49:01;;;;;;;5.53;2.40;;;11.30;43.80;;;;;;5202095;28;20528;-54
2022/04/09 11:51:31;;;;;;;2.27;1.23;;;11.10;44.10;;;;;;5200058;28;20211;-53
2022/04/09 11:54:17;;;;;;;8.47;1.40;;;11.20;44.00;;;;;;5201101;28;20446;-51
2022/04/09 11:56:48;;;;;;;6.17;2.07;;;11.10;44.50;;;;;;5201397;28;20640;-51
2022/04/09 11:59:18;;;;;;;8.63;2.33;;;11.30;45.40;;;;;;5203609;28;20548;-51
2022/04/09 12:01:52;;;;;;;4.10;1.83;;;11.40;45.70;;;;;;5198581;28;20692;-52
2022/04/09 12:04:23;;;;;;;2.03;1.90;;;11.40;45.60;;;;;;5200773;28;20183;-51
2022/04/09 12:06:54;;;;;;;4.07;1.70;;;11.00;46.50;;;;;;5201340;28;20458;-51
2022/04/09 12:09:25;;;;;;;1.20;1.10;;;10.70;47.70;;;;;;5201996;28;20434;-51
2022/04/09 12:12:00;;;;;;;3.07;2.77;;;10.90;48.10;;;;;;5200980;28;20204;-52
2022/04/09 12:14:31;;;;;;;8.03;3.40;;;11.10;48.00;;;;;;5196415;28;20211;-51
2022/04/09 12:17:13;;;;;;;9.10;3.57;;;10.90;47.10;;;;;;5220371;28;20474;-52
2022/04/09 12:19:43;;;;;;;2.73;1.40;;;10.90;47.40;;;;;;5201280;28;20184;-54
2022/04/09 12:22:20;;;;;;;1.83;1.73;;;10.80;47.40;;;;;;5199958;28;20808;-51
2022/04/09 12:24:52;;;;;;;2.80;1.63;;;10.70;46.20;;;;;;5196579;28;20595;-51
2022/04/09 12:27:45;;;;;;;3.30;3.07;;;11.00;46.60;;;;;;5195641;28;20458;-54
2022/04/09 12:30:37;;;;;;;2.27;2.07;;;11.30;47.00;;;;;;5194915;28;20531;-52
2022/04/09 12:33:10;;;;;;;2.87;1.20;;;11.50;46.20;;;;;;5199732;28;20462;-51
2022/04/09 12:35:41;;;;;;;4.30;1.30;;;11.40;46.60;;;;;;5204652;28;20430;-52
2022/04/09 12:38:34;;;;;;;8.33;3.13;;;11.50;47.10;;;;;;5199857;28;21072;-53
2022/04/09 12:41:07;;;;;;;6.70;1.90;;;11.70;47.30;;;;;;5198519;28;20918;-53
2022/04/09 12:43:41;;;;;;;6.93;2.40;;;11.80;47.60;;;;;;5202780;28;20430;-52
2022/04/09 12:46:15;;;;;;;3.63;1.50;;;11.80;47.60;;;;;;5198976;28;20489;-50
2022/04/09 12:48:49;;;;;;;2.00;0.97;;;11.60;46.80;;;;;;5197319;28;20469;-50
2022/04/09 12:51:25;;;;;;;2.07;1.00;;;11.80;47.30;;;;;;5196772;28;20503;-51
2022/04/09 12:53:55;;;;;;;2.80;0.70;;;12.00;46.80;;;;;;5203045;28;20441;-52
2022/04/09 12:56:26;;;;;;;4.53;3.23;;;11.70;45.60;;;;;;5197206;28;20782;-53
2022/04/09 12:58:57;;;;;;;1.53;1.00;;;11.50;46.60;;;;;;5200740;28;20183;-52
2022/04/09 13:01:27;;;;;;;4.93;1.10;;;11.10;47.80;;;;;;5199982;28;20274;-52
2022/04/09 13:03:58;;;;;;;7.37;2.70;;;11.00;48.80;;;;;;5199087;28;20267;-54
2022/04/09 13:06:28;;;;;;;1.03;0.80;;;11.20;49.80;;;;;;5198535;28;20196;-52
2022/04/09 13:08:59;;;;;;;0.40;0.40;;;11.00;50.00;;;;;;5202752;28;20285;-51
2022/04/09 13:11:30;;;;;;;0.50;0.50;;;10.70;50.90;;;;;;5199313;28;20200;-54
2022/04/09 13:14:00;;;;;;;0.93;0.60;;;10.50;51.50;;;;;;5203022;28;20176;-51
2022/04/09 13:16:31;;;;;;;1.23;1.13;;;10.00;52.40;;;;;;5204655;28;20644;-50
2022/04/09 13:19:02;;;;;;;0.40;0.40;;;9.70;55.50;;;;;;5205080;28;20179;-52